KLM808 RPLL-RCTP
Flight info
| Callsign | KLM808 |
|---|---|
| Flight time | 1h 40m |
| Altitude | 40000 |
| Route | ALPAS2R ALPAS M646 SANRO/N0472F410 M646 POTIB Q14 TNN TNN1A |
| Aircraft | B772/H-SDE2E3FGHIJ5LORVWXY/LB1D1 |
Departure
| Time | 2026-05-03 23:51 |
|---|---|
| Airport | Ninoy Aquino International Airport (RPLL) |
Arrival
| Time | 2026-05-04 01:31 |
|---|---|
| Airport | Taiwan Taoyuan International Airport (RCTP) |
| Time | Latitude | Longitude | Altitude | Speed | Heading |
|---|---|---|---|---|---|
| 2026-05-03 23:12 | 14.51751 | 121.01416 | 73 ft | 0 kts | 45° |
| 2026-05-03 23:35 | 14.51744 | 121.01408 | 63 ft | 4 kts | 45° |
| 2026-05-03 23:35 | 14.51725 | 121.01389 | 63 ft | 4 kts | 45° |
| 2026-05-03 23:35 | 14.51708 | 121.01372 | 63 ft | 3 kts | 46° |
| 2026-05-03 23:36 | 14.51696 | 121.01352 | 73 ft | 4 kts | 99° |
| 2026-05-03 23:36 | 14.51708 | 121.01330 | 63 ft | 4 kts | 134° |
| 2026-05-03 23:36 | 14.51700 | 121.01338 | 73 ft | 4 kts | 135° |
| 2026-05-03 23:36 | 14.51681 | 121.01358 | 63 ft | 4 kts | 135° |
| 2026-05-03 23:37 | 14.51662 | 121.01378 | 63 ft | 4 kts | 135° |
| 2026-05-03 23:37 | 14.51642 | 121.01398 | 73 ft | 4 kts | 135° |
| 2026-05-03 23:37 | 14.51630 | 121.01410 | 64 ft | 0 kts | 135° |
| 2026-05-03 23:41 | 14.51626 | 121.01414 | 64 ft | 8 kts | 135° |
| 2026-05-03 23:42 | 14.51560 | 121.01483 | 67 ft | 14 kts | 135° |
| 2026-05-03 23:42 | 14.51489 | 121.01557 | 63 ft | 14 kts | 134° |
| 2026-05-03 23:42 | 14.51419 | 121.01630 | 64 ft | 14 kts | 134° |
| 2026-05-03 23:42 | 14.51349 | 121.01705 | 65 ft | 14 kts | 134° |
| 2026-05-03 23:43 | 14.51279 | 121.01779 | 62 ft | 14 kts | 134° |
| 2026-05-03 23:43 | 14.51207 | 121.01852 | 63 ft | 14 kts | 136° |
| 2026-05-03 23:43 | 14.51134 | 121.01924 | 63 ft | 14 kts | 136° |
| 2026-05-03 23:43 | 14.51072 | 121.01982 | 63 ft | 10 kts | 152° |
| 2026-05-03 23:44 | 14.51016 | 121.01951 | 64 ft | 10 kts | 236° |
| 2026-05-03 23:44 | 14.50972 | 121.01873 | 65 ft | 16 kts | 240° |
| 2026-05-03 23:44 | 14.50918 | 121.01772 | 62 ft | 16 kts | 241° |
| 2026-05-03 23:44 | 14.50862 | 121.01669 | 65 ft | 16 kts | 240° |
| 2026-05-03 23:45 | 14.50805 | 121.01567 | 62 ft | 16 kts | 240° |
| 2026-05-03 23:45 | 14.50749 | 121.01464 | 64 ft | 16 kts | 240° |
| 2026-05-03 23:45 | 14.50692 | 121.01362 | 63 ft | 16 kts | 240° |
| 2026-05-03 23:45 | 14.50636 | 121.01260 | 63 ft | 16 kts | 240° |
| 2026-05-03 23:46 | 14.50579 | 121.01158 | 66 ft | 16 kts | 240° |
| 2026-05-03 23:46 | 14.50522 | 121.01056 | 63 ft | 16 kts | 240° |
| 2026-05-03 23:46 | 14.50465 | 121.00954 | 65 ft | 16 kts | 240° |
| 2026-05-03 23:46 | 14.50407 | 121.00852 | 65 ft | 16 kts | 239° |
| 2026-05-03 23:47 | 14.50350 | 121.00751 | 62 ft | 16 kts | 239° |
| 2026-05-03 23:47 | 14.50292 | 121.00649 | 65 ft | 16 kts | 239° |
| 2026-05-03 23:47 | 14.50234 | 121.00548 | 66 ft | 16 kts | 239° |
| 2026-05-03 23:47 | 14.50176 | 121.00447 | 64 ft | 16 kts | 240° |
| 2026-05-03 23:48 | 14.50122 | 121.00344 | 64 ft | 16 kts | 242° |
| 2026-05-03 23:48 | 14.50068 | 121.00241 | 62 ft | 16 kts | 241° |
| 2026-05-03 23:48 | 14.50011 | 121.00139 | 63 ft | 16 kts | 240° |
| 2026-05-03 23:48 | 14.49958 | 121.00041 | 63 ft | 11 kts | 240° |
| 2026-05-03 23:49 | 14.49919 | 120.99983 | 69 ft | 9 kts | 220° |
| 2026-05-03 23:49 | 14.49858 | 120.99980 | 74 ft | 9 kts | 161° |
| 2026-05-03 23:49 | 14.49812 | 121.00022 | 65 ft | 9 kts | 108° |
| 2026-05-03 23:49 | 14.49825 | 121.00070 | 67 ft | 0 kts | 58° |
| 2026-05-03 23:50 | 14.49826 | 121.00072 | 65 ft | 4 kts | 58° |
| 2026-05-03 23:50 | 14.49871 | 121.00153 | 66 ft | 34 kts | 61° |
| 2026-05-03 23:50 | 14.50230 | 121.00801 | 64 ft | 131 kts | 60° |
| 2026-05-03 23:50 | 14.50785 | 121.01798 | 372 ft | 179 kts | 60° |
| 2026-05-03 23:51 | 14.51423 | 121.02980 | 1239 ft | 191 kts | 64° |
| 2026-05-03 23:51 | 14.51986 | 121.04208 | 2388 ft | 191 kts | 62° |
| 2026-05-03 23:51 | 14.52706 | 121.05455 | 2933 ft | 215 kts | 59° |
| 2026-05-03 23:51 | 14.53537 | 121.06865 | 3263 ft | 246 kts | 59° |
| 2026-05-03 23:52 | 14.54422 | 121.08409 | 4007 ft | 254 kts | 60° |
| 2026-05-03 23:52 | 14.55320 | 121.10000 | 4859 ft | 258 kts | 60° |
| 2026-05-03 23:52 | 14.56242 | 121.11596 | 5695 ft | 259 kts | 54° |
| 2026-05-03 23:52 | 14.57590 | 121.12828 | 6343 ft | 269 kts | 28° |
| 2026-05-03 23:53 | 14.59368 | 121.13459 | 7121 ft | 273 kts | 11° |
| 2026-05-03 23:53 | 14.61279 | 121.13570 | 7857 ft | 279 kts | 1° |
| 2026-05-03 23:53 | 14.63241 | 121.13533 | 8618 ft | 284 kts | 1° |
| 2026-05-03 23:53 | 14.65235 | 121.13505 | 9355 ft | 289 kts | 1° |
| 2026-05-03 23:54 | 14.67260 | 121.13498 | 10046 ft | 293 kts | 2° |
| 2026-05-03 23:54 | 14.69349 | 121.13502 | 10390 ft | 310 kts | 1° |
| 2026-05-03 23:54 | 14.71528 | 121.13150 | 10572 ft | 328 kts | 343° |
| 2026-05-03 23:54 | 14.73705 | 121.12312 | 11129 ft | 338 kts | 341° |
| 2026-05-03 23:55 | 14.75911 | 121.11468 | 11761 ft | 340 kts | 341° |
| 2026-05-03 23:55 | 14.78157 | 121.10633 | 11977 ft | 346 kts | 342° |
| 2026-05-03 23:55 | 14.80438 | 121.09800 | 11960 ft | 348 kts | 342° |
| 2026-05-03 23:55 | 14.82713 | 121.08978 | 11958 ft | 345 kts | 342° |
| 2026-05-03 23:56 | 14.84977 | 121.08164 | 11968 ft | 344 kts | 342° |
| 2026-05-03 23:56 | 14.87209 | 121.07364 | 11964 ft | 344 kts | 342° |
| 2026-05-03 23:56 | 14.89474 | 121.06546 | 11963 ft | 345 kts | 341° |
| 2026-05-03 23:56 | 14.91681 | 121.05529 | 12355 ft | 351 kts | 334° |
| 2026-05-03 23:57 | 14.93837 | 121.04314 | 13313 ft | 354 kts | 332° |
| 2026-05-03 23:57 | 14.95990 | 121.03049 | 14251 ft | 357 kts | 332° |
| 2026-05-03 23:57 | 14.98169 | 121.01766 | 15115 ft | 362 kts | 332° |
| 2026-05-03 23:57 | 15.00381 | 121.00476 | 15931 ft | 368 kts | 332° |
| 2026-05-03 23:58 | 15.02633 | 120.99176 | 16752 ft | 374 kts | 332° |
| 2026-05-03 23:58 | 15.04923 | 120.97865 | 17581 ft | 379 kts | 332° |
| 2026-05-03 23:58 | 15.07248 | 120.96543 | 18401 ft | 383 kts | 332° |
| 2026-05-03 23:58 | 15.09601 | 120.95208 | 19135 ft | 387 kts | 331° |
| 2026-05-03 23:59 | 15.11969 | 120.93868 | 19913 ft | 389 kts | 331° |
| 2026-05-03 23:59 | 15.14360 | 120.92515 | 20658 ft | 392 kts | 331° |
| 2026-05-03 23:59 | 15.16738 | 120.91169 | 21350 ft | 396 kts | 331° |
| 2026-05-03 23:59 | 15.19173 | 120.89790 | 22013 ft | 402 kts | 332° |
| 2026-05-04 00:00 | 15.21669 | 120.88377 | 22695 ft | 406 kts | 332° |
| 2026-05-04 00:00 | 15.24127 | 120.86985 | 23351 ft | 409 kts | 332° |
| 2026-05-04 00:00 | 15.26633 | 120.85565 | 23946 ft | 412 kts | 332° |
| 2026-05-04 00:00 | 15.29164 | 120.84131 | 24498 ft | 416 kts | 331° |
| 2026-05-04 00:01 | 15.31709 | 120.82688 | 25065 ft | 419 kts | 331° |
| 2026-05-04 00:01 | 15.34279 | 120.81230 | 25638 ft | 422 kts | 330° |
| 2026-05-04 00:01 | 15.36863 | 120.79764 | 26196 ft | 425 kts | 330° |
| 2026-05-04 00:01 | 15.39465 | 120.78288 | 26780 ft | 428 kts | 330° |
| 2026-05-04 00:02 | 15.42091 | 120.76797 | 27377 ft | 431 kts | 330° |
| 2026-05-04 00:02 | 15.44730 | 120.75299 | 27958 ft | 435 kts | 330° |
| 2026-05-04 00:02 | 15.47396 | 120.73785 | 28493 ft | 439 kts | 330° |
| 2026-05-04 00:02 | 15.50171 | 120.72424 | 29014 ft | 444 kts | 339° |
| 2026-05-04 00:03 | 15.53121 | 120.71536 | 29498 ft | 449 kts | 344° |
| 2026-05-04 00:03 | 15.56178 | 120.70750 | 30016 ft | 454 kts | 345° |
| 2026-05-04 00:03 | 15.59248 | 120.69940 | 30497 ft | 457 kts | 343° |
| 2026-05-04 00:03 | 15.62324 | 120.69080 | 31002 ft | 459 kts | 342° |
| 2026-05-04 00:04 | 15.65406 | 120.68180 | 31512 ft | 460 kts | 342° |
| 2026-05-04 00:04 | 15.68496 | 120.67266 | 32009 ft | 463 kts | 342° |
| 2026-05-04 00:04 | 15.71602 | 120.66340 | 32487 ft | 465 kts | 341° |
| 2026-05-04 00:04 | 15.74714 | 120.65405 | 32930 ft | 468 kts | 341° |
| 2026-05-04 00:05 | 15.77865 | 120.64455 | 33364 ft | 471 kts | 341° |
| 2026-05-04 00:05 | 15.80979 | 120.63517 | 33770 ft | 473 kts | 341° |
| 2026-05-04 00:05 | 15.84156 | 120.62560 | 34144 ft | 476 kts | 341° |
| 2026-05-04 00:05 | 15.87353 | 120.61598 | 34470 ft | 479 kts | 341° |
| 2026-05-04 00:06 | 15.90558 | 120.60634 | 34822 ft | 480 kts | 341° |
| 2026-05-04 00:06 | 15.93766 | 120.59669 | 35242 ft | 480 kts | 341° |
| 2026-05-04 00:06 | 15.96973 | 120.58706 | 35709 ft | 479 kts | 340° |
| 2026-05-04 00:06 | 16.00172 | 120.57745 | 36166 ft | 477 kts | 340° |
| 2026-05-04 00:07 | 16.03359 | 120.56786 | 36604 ft | 477 kts | 340° |
| 2026-05-04 00:07 | 16.06559 | 120.55822 | 36985 ft | 478 kts | 340° |
| 2026-05-04 00:07 | 16.09750 | 120.54860 | 37378 ft | 478 kts | 340° |
| 2026-05-04 00:07 | 16.12902 | 120.53910 | 37794 ft | 477 kts | 340° |
| 2026-05-04 00:08 | 16.16094 | 120.52948 | 38212 ft | 476 kts | 340° |
| 2026-05-04 00:08 | 16.19277 | 120.51988 | 38606 ft | 476 kts | 340° |
| 2026-05-04 00:08 | 16.22461 | 120.51028 | 38943 ft | 475 kts | 340° |
| 2026-05-04 00:08 | 16.25636 | 120.50071 | 39301 ft | 473 kts | 340° |
| 2026-05-04 00:09 | 16.28798 | 120.49117 | 39696 ft | 471 kts | 340° |
| 2026-05-04 00:09 | 16.30881 | 120.48488 | 39937 ft | 470 kts | 340° |
| 2026-05-04 00:09 | 16.37226 | 120.46570 | 39988 ft | 477 kts | 341° |
| 2026-05-04 00:10 | 16.43544 | 120.44662 | 39850 ft | 466 kts | 340° |
| 2026-05-04 00:10 | 16.46657 | 120.43722 | 39581 ft | 464 kts | 340° |
| 2026-05-04 00:10 | 16.49764 | 120.42781 | 39177 ft | 466 kts | 340° |
| 2026-05-04 00:11 | 16.52879 | 120.41837 | 39023 ft | 468 kts | 340° |
| 2026-05-04 00:11 | 16.56011 | 120.40888 | 39000 ft | 469 kts | 340° |
| 2026-05-04 00:11 | 16.62283 | 120.38988 | 38984 ft | 470 kts | 340° |
| 2026-05-04 00:12 | 16.68561 | 120.37100 | 38964 ft | 470 kts | 342° |
| 2026-05-04 00:12 | 16.75044 | 120.36213 | 38968 ft | 476 kts | 356° |
| 2026-05-04 00:13 | 16.81680 | 120.36714 | 38968 ft | 480 kts | 4° |
| 2026-05-04 00:13 | 16.88318 | 120.37570 | 38967 ft | 480 kts | 4° |
| 2026-05-04 00:14 | 16.94958 | 120.38396 | 38959 ft | 480 kts | 4° |
| 2026-05-04 00:14 | 17.01607 | 120.39184 | 38960 ft | 481 kts | 4° |
| 2026-05-04 00:15 | 17.08269 | 120.39964 | 38956 ft | 481 kts | 4° |
| 2026-05-04 00:15 | 17.14927 | 120.40746 | 38960 ft | 481 kts | 4° |
| 2026-05-04 00:16 | 17.21540 | 120.41526 | 38961 ft | 481 kts | 4° |
| 2026-05-04 00:16 | 17.28201 | 120.42311 | 38960 ft | 482 kts | 4° |
| 2026-05-04 00:17 | 17.34871 | 120.43094 | 38954 ft | 482 kts | 4° |
| 2026-05-04 00:17 | 17.41536 | 120.43878 | 38951 ft | 481 kts | 4° |
| 2026-05-04 00:18 | 17.48195 | 120.44663 | 38956 ft | 480 kts | 4° |
| 2026-05-04 00:18 | 17.54799 | 120.45441 | 38954 ft | 481 kts | 4° |
| 2026-05-04 00:19 | 17.61484 | 120.46230 | 38952 ft | 480 kts | 4° |
| 2026-05-04 00:19 | 17.68079 | 120.47008 | 38948 ft | 479 kts | 4° |
| 2026-05-04 00:20 | 17.74707 | 120.47785 | 38945 ft | 479 kts | 3° |
| 2026-05-04 00:20 | 17.81335 | 120.48559 | 38948 ft | 478 kts | 3° |
| 2026-05-04 00:21 | 17.87964 | 120.49335 | 38966 ft | 478 kts | 3° |
| 2026-05-04 00:21 | 17.94520 | 120.50104 | 38959 ft | 477 kts | 3° |
| 2026-05-04 00:22 | 18.01110 | 120.50877 | 38962 ft | 476 kts | 3° |
| 2026-05-04 00:22 | 18.07686 | 120.51664 | 38967 ft | 475 kts | 4° |
| 2026-05-04 00:23 | 18.14265 | 120.52461 | 38975 ft | 475 kts | 4° |
| 2026-05-04 00:23 | 18.20842 | 120.53211 | 38960 ft | 474 kts | 2° |
| 2026-05-04 00:24 | 18.27417 | 120.53720 | 38964 ft | 473 kts | 1° |
| 2026-05-04 00:24 | 18.33987 | 120.54194 | 38957 ft | 473 kts | 1° |
| 2026-05-04 00:25 | 18.40549 | 120.54703 | 38961 ft | 473 kts | 1° |
| 2026-05-04 00:25 | 18.47074 | 120.55227 | 38963 ft | 472 kts | 1° |
| 2026-05-04 00:26 | 18.53613 | 120.55753 | 38965 ft | 471 kts | 1° |
| 2026-05-04 00:26 | 18.60150 | 120.56278 | 38967 ft | 470 kts | 1° |
| 2026-05-04 00:27 | 18.66675 | 120.56801 | 38969 ft | 470 kts | 1° |
| 2026-05-04 00:27 | 18.73200 | 120.57328 | 38973 ft | 470 kts | 1° |
| 2026-05-04 00:28 | 18.79680 | 120.57856 | 38972 ft | 470 kts | 1° |
| 2026-05-04 00:28 | 18.86219 | 120.58389 | 38973 ft | 470 kts | 1° |
| 2026-05-04 00:29 | 18.92748 | 120.58922 | 38975 ft | 470 kts | 1° |
| 2026-05-04 00:29 | 18.99240 | 120.59452 | 38975 ft | 470 kts | 1° |
| 2026-05-04 00:30 | 19.05767 | 120.59986 | 38979 ft | 470 kts | 1° |
| 2026-05-04 00:30 | 19.12282 | 120.60515 | 38977 ft | 469 kts | 1° |
| 2026-05-04 00:31 | 19.18794 | 120.61024 | 38978 ft | 469 kts | 1° |
| 2026-05-04 00:31 | 19.25301 | 120.61532 | 38978 ft | 468 kts | 1° |
| 2026-05-04 00:32 | 19.31811 | 120.62043 | 38981 ft | 468 kts | 1° |
| 2026-05-04 00:32 | 19.38313 | 120.62556 | 38984 ft | 468 kts | 1° |
| 2026-05-04 00:33 | 19.48063 | 120.63334 | 38984 ft | 469 kts | 1° |
| 2026-05-04 00:34 | 19.54576 | 120.63865 | 38981 ft | 469 kts | 1° |
| 2026-05-04 00:34 | 19.61040 | 120.64392 | 38993 ft | 469 kts | 1° |
| 2026-05-04 00:35 | 19.67554 | 120.64923 | 38982 ft | 469 kts | 1° |
| 2026-05-04 00:35 | 19.74061 | 120.65453 | 38987 ft | 469 kts | 1° |
| 2026-05-04 00:36 | 19.80566 | 120.65983 | 38985 ft | 468 kts | 1° |
| 2026-05-04 00:36 | 19.87075 | 120.66514 | 38997 ft | 468 kts | 1° |
| 2026-05-04 00:37 | 19.93578 | 120.67045 | 38990 ft | 469 kts | 1° |
| 2026-05-04 00:37 | 20.00085 | 120.67576 | 38989 ft | 469 kts | 1° |
| 2026-05-04 00:38 | 20.06600 | 120.68109 | 38992 ft | 469 kts | 1° |
| 2026-05-04 00:38 | 20.13115 | 120.68642 | 38988 ft | 470 kts | 1° |
| 2026-05-04 00:39 | 20.19594 | 120.69174 | 38993 ft | 470 kts | 0° |
| 2026-05-04 00:39 | 20.26134 | 120.69710 | 38992 ft | 471 kts | 0° |
| 2026-05-04 00:40 | 20.32682 | 120.70247 | 38992 ft | 471 kts | 0° |
| 2026-05-04 00:40 | 20.39224 | 120.70784 | 38991 ft | 471 kts | 0° |
| 2026-05-04 00:41 | 20.45772 | 120.71323 | 38993 ft | 471 kts | 360° |
| 2026-05-04 00:41 | 20.52311 | 120.71861 | 38987 ft | 470 kts | 360° |
| 2026-05-04 00:42 | 20.58837 | 120.72398 | 38989 ft | 469 kts | 360° |
| 2026-05-04 00:42 | 20.65313 | 120.72932 | 38988 ft | 469 kts | 360° |
| 2026-05-04 00:43 | 20.71817 | 120.73468 | 39004 ft | 468 kts | 360° |
| 2026-05-04 00:43 | 20.78312 | 120.74005 | 38994 ft | 468 kts | 359° |
| 2026-05-04 00:44 | 20.84808 | 120.74542 | 38989 ft | 468 kts | 359° |
| 2026-05-04 00:44 | 20.91294 | 120.75079 | 38991 ft | 467 kts | 359° |
| 2026-05-04 00:45 | 20.97767 | 120.75512 | 38994 ft | 463 kts | 354° |
| 2026-05-04 00:45 | 21.04122 | 120.74832 | 38995 ft | 455 kts | 342° |
| 2026-05-04 00:46 | 21.10262 | 120.73262 | 38997 ft | 453 kts | 341° |
| 2026-05-04 00:46 | 21.16389 | 120.71646 | 38994 ft | 453 kts | 341° |
| 2026-05-04 00:47 | 21.22527 | 120.70060 | 39000 ft | 453 kts | 341° |
| 2026-05-04 00:47 | 21.28626 | 120.68502 | 38996 ft | 454 kts | 341° |
| 2026-05-04 00:48 | 21.34770 | 120.66935 | 39003 ft | 453 kts | 341° |
| 2026-05-04 00:48 | 21.40903 | 120.65367 | 38998 ft | 453 kts | 341° |
| 2026-05-04 00:49 | 21.47028 | 120.63799 | 39000 ft | 452 kts | 341° |
| 2026-05-04 00:49 | 21.53152 | 120.62230 | 38999 ft | 452 kts | 341° |
| 2026-05-04 00:50 | 21.59270 | 120.60664 | 39003 ft | 452 kts | 341° |
| 2026-05-04 00:50 | 21.65394 | 120.59101 | 39005 ft | 452 kts | 341° |
| 2026-05-04 00:51 | 21.71520 | 120.57535 | 38999 ft | 453 kts | 341° |
| 2026-05-04 00:51 | 21.77654 | 120.55966 | 39000 ft | 453 kts | 341° |
| 2026-05-04 00:52 | 21.83752 | 120.54397 | 39000 ft | 453 kts | 341° |
| 2026-05-04 00:52 | 21.89882 | 120.52811 | 39000 ft | 453 kts | 341° |
| 2026-05-04 00:53 | 21.94977 | 120.51493 | 39008 ft | 453 kts | 340° |
| 2026-05-04 00:53 | 22.01107 | 120.49906 | 38996 ft | 453 kts | 340° |
| 2026-05-04 00:54 | 22.08241 | 120.48058 | 38995 ft | 453 kts | 340° |
| 2026-05-04 00:54 | 22.13383 | 120.46725 | 38998 ft | 453 kts | 340° |
| 2026-05-04 00:55 | 22.19515 | 120.45134 | 38992 ft | 453 kts | 340° |
| 2026-05-04 00:55 | 22.25604 | 120.43553 | 38991 ft | 453 kts | 340° |
| 2026-05-04 00:56 | 22.31746 | 120.41956 | 38995 ft | 453 kts | 340° |
| 2026-05-04 00:56 | 22.37881 | 120.40360 | 38988 ft | 453 kts | 340° |
| 2026-05-04 00:57 | 22.44011 | 120.38764 | 38978 ft | 453 kts | 340° |
| 2026-05-04 00:57 | 22.50144 | 120.37165 | 38978 ft | 453 kts | 340° |
| 2026-05-04 00:58 | 22.56278 | 120.35565 | 38971 ft | 453 kts | 340° |
| 2026-05-04 00:58 | 22.62402 | 120.33966 | 38963 ft | 452 kts | 340° |
| 2026-05-04 00:59 | 22.68480 | 120.32377 | 38969 ft | 452 kts | 340° |
| 2026-05-04 00:59 | 22.74593 | 120.30778 | 38691 ft | 454 kts | 340° |
| 2026-05-04 00:59 | 22.77676 | 120.29970 | 38129 ft | 453 kts | 340° |
| 2026-05-04 01:00 | 22.80724 | 120.29175 | 37722 ft | 447 kts | 339° |
| 2026-05-04 01:00 | 22.83733 | 120.28391 | 37288 ft | 441 kts | 339° |
| 2026-05-04 01:00 | 22.86702 | 120.27618 | 36869 ft | 436 kts | 339° |
| 2026-05-04 01:00 | 22.89637 | 120.26852 | 36463 ft | 431 kts | 339° |
| 2026-05-04 01:01 | 22.92536 | 120.26095 | 36067 ft | 427 kts | 339° |
| 2026-05-04 01:01 | 22.95409 | 120.25344 | 35681 ft | 422 kts | 339° |
| 2026-05-04 01:01 | 22.98222 | 120.24607 | 35268 ft | 419 kts | 339° |
| 2026-05-04 01:01 | 23.01046 | 120.23867 | 34859 ft | 416 kts | 339° |
| 2026-05-04 01:02 | 23.03852 | 120.23131 | 34458 ft | 413 kts | 339° |
| 2026-05-04 01:02 | 23.06641 | 120.22400 | 34054 ft | 410 kts | 339° |
| 2026-05-04 01:02 | 23.09410 | 120.21674 | 33595 ft | 408 kts | 339° |
| 2026-05-04 01:02 | 23.12160 | 120.20956 | 33177 ft | 405 kts | 340° |
| 2026-05-04 01:03 | 23.14943 | 120.20603 | 32758 ft | 413 kts | 356° |
| 2026-05-04 01:03 | 23.17798 | 120.20926 | 32418 ft | 413 kts | 0° |
| 2026-05-04 01:03 | 23.20660 | 120.21321 | 32037 ft | 418 kts | 0° |
| 2026-05-04 01:03 | 23.23609 | 120.21722 | 31669 ft | 433 kts | 0° |
| 2026-05-04 01:04 | 23.26614 | 120.22117 | 31244 ft | 436 kts | 0° |
| 2026-05-04 01:04 | 23.29625 | 120.22503 | 30832 ft | 433 kts | 0° |
| 2026-05-04 01:04 | 23.32609 | 120.22875 | 30434 ft | 430 kts | 0° |
| 2026-05-04 01:04 | 23.35567 | 120.23236 | 30024 ft | 427 kts | 0° |
| 2026-05-04 01:05 | 23.38511 | 120.23591 | 29541 ft | 424 kts | 359° |
| 2026-05-04 01:05 | 23.41430 | 120.23940 | 29106 ft | 421 kts | 359° |
| 2026-05-04 01:05 | 23.44335 | 120.24287 | 28668 ft | 418 kts | 359° |
| 2026-05-04 01:05 | 23.47215 | 120.24631 | 28249 ft | 415 kts | 360° |
| 2026-05-04 01:06 | 23.50084 | 120.24974 | 27846 ft | 412 kts | 360° |
| 2026-05-04 01:06 | 23.52926 | 120.25314 | 27439 ft | 410 kts | 360° |
| 2026-05-04 01:06 | 23.55757 | 120.25653 | 27032 ft | 408 kts | 360° |
| 2026-05-04 01:06 | 23.58570 | 120.25990 | 26648 ft | 406 kts | 360° |
| 2026-05-04 01:07 | 23.61371 | 120.26326 | 26257 ft | 404 kts | 360° |
| 2026-05-04 01:07 | 23.64163 | 120.26661 | 25886 ft | 403 kts | 360° |
| 2026-05-04 01:07 | 23.66915 | 120.26991 | 25486 ft | 402 kts | 360° |
| 2026-05-04 01:07 | 23.69690 | 120.27325 | 25100 ft | 401 kts | 0° |
| 2026-05-04 01:08 | 23.72444 | 120.27862 | 24700 ft | 404 kts | 8° |
| 2026-05-04 01:08 | 23.75147 | 120.28721 | 24345 ft | 405 kts | 13° |
| 2026-05-04 01:08 | 23.77824 | 120.29703 | 23959 ft | 406 kts | 14° |
| 2026-05-04 01:08 | 23.80498 | 120.30714 | 23561 ft | 406 kts | 14° |
| 2026-05-04 01:09 | 23.83166 | 120.31709 | 23118 ft | 405 kts | 14° |
| 2026-05-04 01:09 | 23.85836 | 120.32683 | 22705 ft | 403 kts | 13° |
| 2026-05-04 01:09 | 23.88439 | 120.33616 | 22304 ft | 390 kts | 13° |
| 2026-05-04 01:09 | 23.90983 | 120.34516 | 21954 ft | 382 kts | 12° |
| 2026-05-04 01:10 | 23.93515 | 120.35399 | 21588 ft | 381 kts | 11° |
| 2026-05-04 01:10 | 23.96050 | 120.36277 | 21223 ft | 381 kts | 11° |
| 2026-05-04 01:10 | 23.98576 | 120.37150 | 20859 ft | 380 kts | 12° |
| 2026-05-04 01:10 | 24.01097 | 120.38022 | 20471 ft | 380 kts | 12° |
| 2026-05-04 01:11 | 24.03613 | 120.38894 | 20086 ft | 379 kts | 12° |
| 2026-05-04 01:11 | 24.06087 | 120.39755 | 19706 ft | 368 kts | 12° |
| 2026-05-04 01:11 | 24.08527 | 120.40604 | 19341 ft | 368 kts | 12° |
| 2026-05-04 01:11 | 24.10972 | 120.41452 | 18971 ft | 369 kts | 12° |
| 2026-05-04 01:12 | 24.13421 | 120.42301 | 18596 ft | 370 kts | 12° |
| 2026-05-04 01:12 | 24.15824 | 120.43137 | 18216 ft | 361 kts | 12° |
| 2026-05-04 01:12 | 24.18207 | 120.43969 | 17803 ft | 358 kts | 12° |
| 2026-05-04 01:12 | 24.20579 | 120.44793 | 17421 ft | 358 kts | 12° |
| 2026-05-04 01:13 | 24.22954 | 120.45618 | 17039 ft | 358 kts | 12° |
| 2026-05-04 01:13 | 24.25325 | 120.46443 | 16668 ft | 358 kts | 12° |
| 2026-05-04 01:13 | 24.27695 | 120.47269 | 16282 ft | 352 kts | 12° |
| 2026-05-04 01:13 | 24.30027 | 120.48083 | 15921 ft | 352 kts | 12° |
| 2026-05-04 01:14 | 24.32373 | 120.48900 | 15566 ft | 353 kts | 12° |
| 2026-05-04 01:14 | 24.34721 | 120.49717 | 15187 ft | 355 kts | 12° |
| 2026-05-04 01:14 | 24.37088 | 120.50542 | 14808 ft | 358 kts | 12° |
| 2026-05-04 01:14 | 24.39446 | 120.51367 | 14408 ft | 349 kts | 12° |
| 2026-05-04 01:15 | 24.41712 | 120.52164 | 14055 ft | 336 kts | 12° |
| 2026-05-04 01:15 | 24.43948 | 120.52946 | 13692 ft | 338 kts | 12° |
| 2026-05-04 01:15 | 24.46170 | 120.53719 | 13313 ft | 340 kts | 12° |
| 2026-05-04 01:15 | 24.48431 | 120.54508 | 12937 ft | 340 kts | 12° |
| 2026-05-04 01:16 | 24.50690 | 120.55297 | 12578 ft | 341 kts | 12° |
| 2026-05-04 01:16 | 24.52948 | 120.56088 | 12140 ft | 336 kts | 12° |
| 2026-05-04 01:16 | 24.55129 | 120.56856 | 11728 ft | 322 kts | 12° |
| 2026-05-04 01:16 | 24.57244 | 120.57598 | 11389 ft | 319 kts | 12° |
| 2026-05-04 01:17 | 24.59362 | 120.58337 | 11066 ft | 320 kts | 12° |
| 2026-05-04 01:17 | 24.61489 | 120.59080 | 10740 ft | 322 kts | 12° |
| 2026-05-04 01:17 | 24.63600 | 120.59822 | 10384 ft | 313 kts | 12° |
| 2026-05-04 01:17 | 24.65663 | 120.60546 | 10114 ft | 310 kts | 12° |
| 2026-05-04 01:18 | 24.67642 | 120.61383 | 9966 ft | 302 kts | 26° |
| 2026-05-04 01:18 | 24.69263 | 120.62807 | 9709 ft | 304 kts | 40° |
| 2026-05-04 01:18 | 24.70829 | 120.64395 | 9403 ft | 309 kts | 39° |
| 2026-05-04 01:18 | 24.72429 | 120.66003 | 9097 ft | 312 kts | 39° |
| 2026-05-04 01:19 | 24.74042 | 120.67614 | 8791 ft | 311 kts | 40° |
| 2026-05-04 01:19 | 24.75645 | 120.69207 | 8485 ft | 309 kts | 39° |
| 2026-05-04 01:19 | 24.77222 | 120.70769 | 8179 ft | 308 kts | 39° |
| 2026-05-04 01:19 | 24.78814 | 120.72340 | 7869 ft | 307 kts | 39° |
| 2026-05-04 01:20 | 24.80406 | 120.73909 | 7587 ft | 306 kts | 40° |
| 2026-05-04 01:20 | 24.81988 | 120.75465 | 7288 ft | 304 kts | 41° |
| 2026-05-04 01:20 | 24.83504 | 120.76963 | 6967 ft | 282 kts | 40° |
| 2026-05-04 01:20 | 24.84925 | 120.78365 | 6718 ft | 273 kts | 41° |
| 2026-05-04 01:21 | 24.86360 | 120.79780 | 6470 ft | 281 kts | 41° |
| 2026-05-04 01:21 | 24.87834 | 120.81232 | 6189 ft | 288 kts | 41° |
| 2026-05-04 01:21 | 24.89325 | 120.82701 | 5884 ft | 286 kts | 41° |
| 2026-05-04 01:21 | 24.90766 | 120.84122 | 5599 ft | 274 kts | 43° |
| 2026-05-04 01:22 | 24.91918 | 120.85734 | 5313 ft | 268 kts | 69° |
| 2026-05-04 01:22 | 24.92347 | 120.87696 | 5094 ft | 260 kts | 82° |
| 2026-05-04 01:22 | 24.92660 | 120.89632 | 4823 ft | 254 kts | 81° |
| 2026-05-04 01:22 | 24.92978 | 120.91501 | 4564 ft | 249 kts | 80° |
| 2026-05-04 01:23 | 24.93287 | 120.93318 | 4319 ft | 232 kts | 79° |
| 2026-05-04 01:23 | 24.93569 | 120.94990 | 4218 ft | 211 kts | 79° |
| 2026-05-04 01:23 | 24.93827 | 120.96511 | 4103 ft | 192 kts | 79° |
| 2026-05-04 01:23 | 24.94062 | 120.97900 | 4019 ft | 180 kts | 80° |
| 2026-05-04 01:24 | 24.94286 | 120.99218 | 3971 ft | 173 kts | 80° |
| 2026-05-04 01:24 | 24.94501 | 121.00487 | 3909 ft | 171 kts | 79° |
| 2026-05-04 01:24 | 24.94717 | 121.01761 | 3873 ft | 169 kts | 79° |
| 2026-05-04 01:24 | 24.94939 | 121.03074 | 3807 ft | 175 kts | 80° |
| 2026-05-04 01:25 | 24.95159 | 121.04377 | 3609 ft | 169 kts | 79° |
| 2026-05-04 01:25 | 24.95369 | 121.05607 | 3446 ft | 157 kts | 76° |
| 2026-05-04 01:25 | 24.95882 | 121.06647 | 3290 ft | 158 kts | 57° |
| 2026-05-04 01:25 | 24.96506 | 121.07646 | 3143 ft | 162 kts | 60° |
| 2026-05-04 01:26 | 24.97153 | 121.08657 | 2963 ft | 161 kts | 56° |
| 2026-05-04 01:26 | 24.97835 | 121.09596 | 2805 ft | 152 kts | 54° |
| 2026-05-04 01:26 | 24.98498 | 121.10457 | 2624 ft | 141 kts | 54° |
| 2026-05-04 01:26 | 24.99113 | 121.11242 | 2464 ft | 132 kts | 54° |
| 2026-05-04 01:27 | 24.99708 | 121.12002 | 2286 ft | 133 kts | 52° |
| 2026-05-04 01:27 | 25.00315 | 121.12772 | 2123 ft | 133 kts | 52° |
| 2026-05-04 01:27 | 25.00918 | 121.13533 | 1951 ft | 131 kts | 53° |
| 2026-05-04 01:27 | 25.01504 | 121.14278 | 1798 ft | 126 kts | 52° |
| 2026-05-04 01:28 | 25.02062 | 121.14984 | 1625 ft | 117 kts | 51° |
| 2026-05-04 01:28 | 25.02567 | 121.15622 | 1516 ft | 104 kts | 51° |
| 2026-05-04 01:28 | 25.03052 | 121.16236 | 1459 ft | 108 kts | 51° |
| 2026-05-04 01:28 | 25.03534 | 121.16846 | 1337 ft | 104 kts | 52° |
| 2026-05-04 01:29 | 25.03999 | 121.17440 | 1181 ft | 105 kts | 51° |
| 2026-05-04 01:29 | 25.04493 | 121.18066 | 1050 ft | 107 kts | 50° |
| 2026-05-04 01:29 | 25.04965 | 121.18669 | 845 ft | 106 kts | 50° |
| 2026-05-04 01:29 | 25.05456 | 121.19312 | 730 ft | 107 kts | 52° |
| 2026-05-04 01:30 | 25.05945 | 121.19955 | 523 ft | 114 kts | 52° |
| 2026-05-04 01:30 | 25.06478 | 121.20617 | 336 ft | 117 kts | 50° |
| 2026-05-04 01:30 | 25.07030 | 121.21288 | 239 ft | 122 kts | 48° |
| 2026-05-04 01:30 | 25.07599 | 121.21987 | 108 ft | 117 kts | 51° |
| 2026-05-04 01:31 | 25.08044 | 121.22556 | 107 ft | 73 kts | 49° |
| 2026-05-04 01:31 | 25.08278 | 121.22852 | 107 ft | 39 kts | 48° |
| 2026-05-04 01:31 | 25.08416 | 121.23069 | 106 ft | 30 kts | 69° |
| 2026-05-04 01:31 | 25.08449 | 121.23210 | 107 ft | 10 kts | 79° |
| 2026-05-04 01:32 | 25.08452 | 121.23227 | 107 ft | 0 kts | 79° |
| 2026-05-04 01:32 | 25.08452 | 121.23229 | 107 ft | 2 kts | 79° |
| 2026-05-04 01:32 | 25.08455 | 121.23246 | 106 ft | 2 kts | 78° |
| 2026-05-04 01:32 | 25.08463 | 121.23294 | 106 ft | 11 kts | 79° |
| 2026-05-04 01:33 | 25.08479 | 121.23378 | 105 ft | 11 kts | 74° |
| 2026-05-04 01:33 | 25.08510 | 121.23457 | 107 ft | 11 kts | 60° |
| 2026-05-04 01:33 | 25.08555 | 121.23527 | 108 ft | 11 kts | 50° |
| 2026-05-04 01:33 | 25.08606 | 121.23592 | 106 ft | 11 kts | 50° |
| 2026-05-04 01:34 | 25.08656 | 121.23658 | 106 ft | 11 kts | 50° |
| 2026-05-04 01:34 | 25.08706 | 121.23722 | 107 ft | 11 kts | 49° |
| 2026-05-04 01:34 | 25.08734 | 121.23788 | 107 ft | 8 kts | 92° |
| 2026-05-04 01:34 | 25.08704 | 121.23843 | 106 ft | 8 kts | 135° |
| 2026-05-04 01:35 | 25.08661 | 121.23887 | 107 ft | 9 kts | 137° |
| 2026-05-04 01:35 | 25.08618 | 121.23931 | 106 ft | 8 kts | 137° |
| 2026-05-04 01:35 | 25.08574 | 121.23976 | 108 ft | 9 kts | 139° |
| 2026-05-04 01:35 | 25.08530 | 121.24019 | 108 ft | 9 kts | 138° |
| 2026-05-04 01:36 | 25.08486 | 121.24063 | 109 ft | 9 kts | 138° |
| 2026-05-04 01:36 | 25.08442 | 121.24106 | 107 ft | 9 kts | 138° |
| 2026-05-04 01:36 | 25.08398 | 121.24150 | 109 ft | 9 kts | 137° |
| 2026-05-04 01:36 | 25.08352 | 121.24189 | 107 ft | 8 kts | 164° |
| 2026-05-04 01:37 | 25.08318 | 121.24153 | 108 ft | 8 kts | 282° |
| 2026-05-04 01:37 | 25.08354 | 121.24102 | 107 ft | 8 kts | 320° |
| 2026-05-04 01:37 | 25.08416 | 121.24082 | 107 ft | 13 kts | 348° |
| 2026-05-04 01:37 | 25.08503 | 121.24029 | 107 ft | 14 kts | 322° |
| 2026-05-04 01:38 | 25.08577 | 121.23962 | 105 ft | 14 kts | 320° |
| 2026-05-04 01:38 | 25.08636 | 121.23906 | 109 ft | 11 kts | 316° |
| 2026-05-04 01:38 | 25.08647 | 121.23829 | 107 ft | 11 kts | 245° |
| 2026-05-04 01:38 | 25.08601 | 121.23761 | 107 ft | 11 kts | 229° |
| 2026-05-04 01:39 | 25.08550 | 121.23697 | 105 ft | 11 kts | 229° |
| 2026-05-04 01:39 | 25.08500 | 121.23633 | 108 ft | 11 kts | 229° |
| 2026-05-04 01:39 | 25.08450 | 121.23568 | 105 ft | 11 kts | 230° |
| 2026-05-04 01:39 | 25.08400 | 121.23503 | 108 ft | 11 kts | 229° |
| 2026-05-04 01:40 | 25.08350 | 121.23439 | 106 ft | 11 kts | 229° |
| 2026-05-04 01:40 | 25.08317 | 121.23396 | 107 ft | 11 kts | 229° |
| 2026-05-04 01:40 | 25.08267 | 121.23332 | 107 ft | 11 kts | 229° |
| 2026-05-04 01:40 | 25.08200 | 121.23246 | 107 ft | 10 kts | 229° |
| 2026-05-04 01:41 | 25.08163 | 121.23219 | 108 ft | 6 kts | 184° |
| 2026-05-04 01:41 | 25.08122 | 121.23238 | 106 ft | 6 kts | 145° |
| 2026-05-04 01:41 | 25.08105 | 121.23252 | 108 ft | 1 kts | 143° |
| 2026-05-04 01:41 | 25.08101 | 121.23256 | 105 ft | 1 kts | 141° |
| 2026-05-04 01:42 | 25.08094 | 121.23262 | 109 ft | 1 kts | 141° |
| 2026-05-04 01:42 | 25.08086 | 121.23270 | 105 ft | 1 kts | 140° |
| 2026-05-04 01:42 | 25.08082 | 121.23273 | 105 ft | 0 kts | 140° |
| 2026-05-04 01:42 | 25.08081 | 121.23274 | 105 ft | 0 kts | 140° |